createdAt,value
2022-08-27T00:02:02.572Z,98280.22
2022-08-27T00:05:04.611Z,98285.91
2022-08-27T00:08:07.110Z,98292.53
2022-08-27T00:11:08.972Z,98297.47
2022-08-27T00:14:10.931Z,98292.34
2022-08-27T00:17:14.245Z,98287.06
2022-08-27T00:20:18.520Z,98283.47
2022-08-27T00:23:20.444Z,98287.16
2022-08-27T00:26:22.168Z,98283.88
2022-08-27T00:29:23.967Z,98281.56
2022-08-27T00:32:27.078Z,98282.56
2022-08-27T00:35:28.666Z,98289.66
2022-08-27T00:38:30.770Z,98294.31
2022-08-27T00:41:33.506Z,98296.28
2022-08-27T00:44:35.169Z,98289.44
2022-08-27T00:47:42.322Z,98290.31
2022-08-27T00:50:46.185Z,98292.38
2022-08-27T00:53:48.510Z,98292.56
2022-08-27T00:56:51.646Z,98296.75
2022-08-27T00:59:55.529Z,98295.03
2022-08-27T01:02:58.512Z,98295.03
2022-08-27T01:06:02.038Z,98296.03
2022-08-27T01:09:05.965Z,98292.38
2022-08-27T01:12:08.045Z,98304.63
2022-08-27T01:15:11.993Z,98299.50
2022-08-27T01:18:18.592Z,98302.41
2022-08-27T01:21:25.470Z,98301.47
2022-08-27T01:24:31.694Z,98299.97
2022-08-27T01:27:34.381Z,98296.56
2022-08-27T01:30:37.177Z,98300.97
2022-08-27T01:33:39.359Z,98307.50
2022-08-27T01:36:41.466Z,98317.31
2022-08-27T01:39:44.921Z,98317.91
2022-08-27T01:42:47.544Z,98309.66
2022-08-27T01:45:50.826Z,98320.72
2022-08-27T01:48:52.572Z,98319.63
2022-08-27T01:51:55.025Z,98323.81
2022-08-27T01:54:58.219Z,98318.44
2022-08-27T01:57:59.804Z,98313.66
2022-08-27T02:01:03.325Z,98308.63
2022-08-27T02:04:05.064Z,98315.13
2022-08-27T02:07:07.073Z,98312.81
2022-08-27T02:10:11.699Z,98316.50
2022-08-27T02:13:13.409Z,98308.13
2022-08-27T02:16:15.405Z,98307.25
2022-08-27T02:19:17.137Z,98318.53
2022-08-27T02:22:19.901Z,98318.19
2022-08-27T02:25:23.268Z,98310.13
2022-08-27T02:28:25.132Z,98312.31
2022-08-27T02:31:26.936Z,98314.88
2022-08-27T02:34:29.114Z,98314.16
2022-08-27T02:37:30.904Z,98307.28
2022-08-27T02:40:34.061Z,98305.19
2022-08-27T02:43:36.186Z,98309.25
2022-08-27T02:46:39.058Z,98310.59
2022-08-27T02:49:41.043Z,98310.84
2022-08-27T02:52:46.461Z,98311.09
2022-08-27T02:55:50.307Z,98323.59
2022-08-27T02:58:52.092Z,98316.22
2022-08-27T03:01:53.893Z,98314.25
2022-08-27T03:04:55.718Z,98310.59
2022-08-27T03:07:59.451Z,98319.06
2022-08-27T03:11:02.486Z,98322.47
2022-08-27T03:14:04.310Z,98316.63
2022-08-27T03:17:24.351Z,98325.66
2022-08-27T03:20:26.085Z,98327.00
2022-08-27T03:23:29.325Z,98325.44
2022-08-27T03:26:32.284Z,98328.84
2022-08-27T03:29:34.976Z,98329.59
2022-08-27T03:32:37.602Z,98331.16
2022-08-27T03:35:39.248Z,98327.13
2022-08-27T03:38:40.977Z,98333.38
2022-08-27T03:41:55.435Z,98333.13
2022-08-27T03:44:57.504Z,98335.22
2022-08-27T03:47:59.183Z,98329.72
2022-08-27T03:51:05.198Z,98329.19
2022-08-27T03:54:07.208Z,98332.03
2022-08-27T03:57:10.717Z,98333.38
2022-08-27T04:00:14.204Z,98324.44
2022-08-27T04:03:16.114Z,98333.50
2022-08-27T04:06:18.192Z,98337.06
2022-08-27T04:09:20.009Z,98331.81
2022-08-27T04:12:23.059Z,98327.13
2022-08-27T04:15:24.661Z,98333.38
2022-08-27T04:18:26.270Z,98334.38
2022-08-27T04:21:28.278Z,98334.59
2022-08-27T04:24:31.253Z,98333.13
2022-08-27T04:27:34.177Z,98331.66
2022-08-27T04:30:38.735Z,98338.03
2022-08-27T04:33:40.380Z,98331.66
2022-08-27T04:36:42.416Z,98337.78
2022-08-27T04:39:47.529Z,98351.72
2022-08-27T04:42:56.158Z,98342.91
2022-08-27T04:45:57.939Z,98347.44
2022-08-27T04:49:00.531Z,98337.50
2022-08-27T04:52:02.534Z,98345.59
2022-08-27T04:55:04.867Z,98344.00
2022-08-27T04:58:08.346Z,98341.44
2022-08-27T05:01:15.010Z,98339.72
2022-08-27T05:04:18.986Z,98340.72
2022-08-27T05:07:20.661Z,98341.66
2022-08-27T05:10:22.404Z,98334.53
2022-08-27T05:13:25.443Z,98339.94
2022-08-27T05:16:27.020Z,98338.09
2022-08-27T05:19:28.801Z,98344.47
2022-08-27T05:22:30.569Z,98344.72
2022-08-27T05:25:32.230Z,98342.16
2022-08-27T05:28:35.386Z,98342.88
2022-08-27T05:31:37.738Z,98349.00
2022-08-27T05:34:39.506Z,98348.41
2022-08-27T05:37:41.030Z,98338.34
2022-08-27T05:40:43.848Z,98339.31
2022-08-27T05:43:50.125Z,98350.72
2022-08-27T05:46:52.781Z,98355.50
2022-08-27T05:49:55.094Z,98356.59
2022-08-27T05:52:56.935Z,98348.75
2022-08-27T05:55:58.798Z,98360.28
2022-08-27T05:59:20.347Z,98361.25
2022-08-27T06:02:22.595Z,98364.44
2022-08-27T06:05:24.741Z,98364.97
2022-08-27T06:08:26.330Z,98353.94
2022-08-27T06:11:28.790Z,98356.50
2022-08-27T06:14:31.895Z,98357.97
2022-08-27T06:17:33.504Z,98363.50
2022-08-27T06:20:35.053Z,98361.53
2022-08-27T06:23:36.975Z,98363.28
2022-08-27T06:26:39.260Z,98365.34
2022-08-27T06:29:42.357Z,98364.47
2022-08-27T06:32:43.908Z,98367.91
2022-08-27T06:35:45.593Z,98362.63
2022-08-27T06:38:47.584Z,98366.31
2022-08-27T06:41:51.040Z,98369.00
2022-08-27T06:44:55.479Z,98367.06
2022-08-27T06:47:57.578Z,98374.06
2022-08-27T06:50:59.486Z,98387.44
2022-08-27T06:54:02.714Z,98382.88
2022-08-27T06:57:04.498Z,98385.81
2022-08-27T07:00:09.900Z,98379.66
2022-08-27T07:03:11.795Z,98393.16
2022-08-27T07:06:14.662Z,98391.44
2022-08-27T07:09:16.721Z,98390.25
2022-08-27T07:12:18.422Z,98395.50
2022-08-27T07:15:22.144Z,98394.88
2022-08-27T07:18:27.937Z,98395.84
2022-08-27T07:21:30.722Z,98401.25
2022-08-27T07:24:33.108Z,98400.03
2022-08-27T07:27:35.034Z,98409.22
2022-08-27T07:30:38.236Z,98416.69
2022-08-27T07:33:40.331Z,98418.63
2022-08-27T07:36:47.947Z,98413.97
2022-08-27T07:39:49.698Z,98413.13
2022-08-27T07:43:10.026Z,98416.94
2022-08-27T07:46:13.663Z,98421.47
2022-08-27T07:49:15.285Z,98426.00
2022-08-27T07:52:17.468Z,98425.00
2022-08-27T07:55:19.202Z,98427.47
2022-08-27T07:58:21.040Z,98422.94
2022-08-27T08:01:24.472Z,98427.22
2022-08-27T08:04:26.811Z,98423.78
2022-08-27T08:07:29.243Z,98424.88
2022-08-27T08:10:34.980Z,98425.06
2022-08-27T08:13:37.602Z,98427.25
2022-08-27T08:16:41.449Z,98421.13
2022-08-27T08:19:50.257Z,98424.34
2022-08-27T08:23:04.208Z,98426.28
2022-08-27T08:26:12.240Z,98426.06
2022-08-27T08:29:18.082Z,98419.97
2022-08-27T08:32:21.435Z,98424.03
2022-08-27T08:35:24.406Z,98423.44
2022-08-27T08:38:28.276Z,98430.81
2022-08-27T08:41:39.282Z,98442.56
2022-08-27T08:44:42.557Z,98440.69
2022-08-27T08:47:47.196Z,98439.06
2022-08-27T08:50:51.534Z,98443.47
2022-08-27T08:53:55.061Z,98446.06
2022-08-27T08:56:59.648Z,98441.53
2022-08-27T09:00:02.570Z,98442.16
2022-08-27T09:03:05.808Z,98442.56
2022-08-27T09:06:09.153Z,98435.81
2022-08-27T09:09:16.671Z,98438.91
2022-08-27T09:12:19.888Z,98445.28
2022-08-27T09:15:22.712Z,98447.72
2022-08-27T09:18:27.922Z,98441.09
2022-08-27T09:21:34.688Z,98438.66
2022-08-27T09:24:42.310Z,98441.75
2022-08-27T09:27:44.225Z,98439.66
2022-08-27T09:30:46.101Z,98441.63
2022-08-27T09:33:55.994Z,98436.84
2022-08-27T09:37:01.001Z,98429.63
2022-08-27T09:40:13.328Z,98434.16
2022-08-27T09:43:22.679Z,98427.44
2022-08-27T09:46:27.051Z,98430.22
2022-08-27T09:49:30.765Z,98429.38
2022-08-27T09:52:33.560Z,98435.41
2022-08-27T09:55:44.258Z,98433.06
2022-08-27T09:58:48.978Z,98429.63
2022-08-27T10:01:52.101Z,98425.59
2022-08-27T10:04:57.342Z,98435.28
2022-08-27T10:08:01.004Z,98439.19
2022-08-27T10:11:04.809Z,98434.56
2022-08-27T10:14:13.064Z,98439.56
2022-08-27T10:17:18.502Z,98435.75
2022-08-27T10:20:30.531Z,98439.09
2022-08-27T10:23:38.546Z,98433.19
2022-08-27T10:26:43.408Z,98432.59
2022-08-27T10:29:50.625Z,98435.03
2022-08-27T10:32:56.808Z,98434.91
2022-08-27T10:36:01.514Z,98440.69
2022-08-27T10:39:08.601Z,98437.47
2022-08-27T10:42:14.684Z,98446.94
2022-08-27T10:45:24.044Z,98440.06
2022-08-27T10:48:35.308Z,98444.84
2022-08-27T10:51:44.456Z,98450.06
2022-08-27T10:54:49.786Z,98455.47
2022-08-27T10:58:01.304Z,98458.84
2022-08-27T11:01:06.385Z,98460.69
2022-08-27T11:04:10.438Z,98460.44
2022-08-27T11:07:18.684Z,98460.69
2022-08-27T11:10:24.504Z,98455.59
2022-08-27T11:13:32.382Z,98452.63
2022-08-27T11:16:37.329Z,98467.00
2022-08-27T11:19:45.863Z,98466.91
2022-08-27T11:22:51.181Z,98468.50
2022-08-27T11:25:54.309Z,98470.78
2022-08-27T11:29:01.844Z,98470.19
2022-08-27T11:32:08.944Z,98469.56
2022-08-27T11:35:15.456Z,98465.03
2022-08-27T11:38:35.784Z,98462.41
2022-08-27T11:41:46.899Z,98470.50
2022-08-27T11:44:51.200Z,98472.47
2022-08-27T11:47:53.438Z,98464.16
2022-08-27T11:50:57.014Z,98470.91
2022-08-27T11:53:59.719Z,98474.22
2022-08-27T11:57:03.054Z,98469.56
2022-08-27T12:00:15.261Z,98473.88
2022-08-27T12:03:23.640Z,98470.19
2022-08-27T12:06:26.585Z,98470.78
2022-08-27T12:09:28.561Z,98478.69
2022-08-27T12:12:35.265Z,98478.91
2022-08-27T12:15:46.198Z,98479.75
2022-08-27T12:19:01.144Z,98487.00
2022-08-27T12:22:07.635Z,98495.47
2022-08-27T12:25:19.963Z,98492.63
2022-08-27T12:28:26.705Z,98478.25
2022-08-27T12:31:29.253Z,98486.84
2022-08-27T12:34:33.417Z,98483.06
2022-08-27T12:37:37.472Z,98486.50
2022-08-27T12:40:46.466Z,98486.78
2022-08-27T12:43:49.665Z,98495.59
2022-08-27T12:46:53.021Z,98490.09
2022-08-27T12:49:59.037Z,98494.50
2022-08-27T12:53:14.364Z,98493.63
2022-08-27T12:56:39.888Z,98488.97
2022-08-27T13:00:01.305Z,98482.34
2022-08-27T13:03:20.273Z,98483.88
2022-08-27T13:06:23.080Z,98482.75
2022-08-27T13:09:29.090Z,98492.69
2022-08-27T13:12:30.807Z,98479.94
2022-08-27T13:15:35.272Z,98491.13
2022-08-27T13:18:37.123Z,98493.09
2022-08-27T13:21:38.766Z,98487.06
2022-08-27T13:24:45.567Z,98494.16
2022-08-27T13:27:52.309Z,98490.13
2022-08-27T13:30:56.005Z,98487.91
2022-08-27T13:33:58.819Z,98493.44
2022-08-27T13:37:04.118Z,98487.81
2022-08-27T13:40:06.523Z,98490.53
2022-08-27T13:43:12.768Z,98489.53
2022-08-27T13:46:18.068Z,98491.47
2022-08-27T13:49:22.730Z,98490.63
2022-08-27T13:52:27.316Z,98489.53
2022-08-27T13:55:29.996Z,98479.94
2022-08-27T13:58:35.649Z,98479.59
2022-08-27T14:01:41.252Z,98478.34
2022-08-27T14:04:44.329Z,98478.72
2022-08-27T14:07:50.290Z,98473.81
2022-08-27T14:10:59.565Z,98475.19
2022-08-27T14:14:02.169Z,98477.13
2022-08-27T14:17:08.873Z,98468.16
2022-08-27T14:20:11.136Z,98476.03
2022-08-27T14:23:13.353Z,98480.19
2022-08-27T14:26:17.424Z,98475.38
2022-08-27T14:29:19.360Z,98478.00
2022-08-27T14:32:22.556Z,98484.13
2022-08-27T14:35:25.100Z,98480.44
2022-08-27T14:38:30.312Z,98486.56
2022-08-27T14:41:33.509Z,98482.16
2022-08-27T14:44:35.155Z,98482.16
2022-08-27T14:47:39.205Z,98479.19
2022-08-27T14:50:42.334Z,98475.63
2022-08-27T14:53:43.952Z,98478.34
2022-08-27T14:56:45.642Z,98473.78
2022-08-27T14:59:47.087Z,98477.22
2022-08-27T15:02:50.367Z,98480.41
2022-08-27T15:05:54.978Z,98477.34
2022-08-27T15:08:57.300Z,98479.69
2022-08-27T15:11:59.332Z,98483.09
2022-08-27T15:15:00.916Z,98478.81
2022-08-27T15:18:04.245Z,98473.03
2022-08-27T15:21:06.146Z,98480.00
2022-08-27T15:24:15.321Z,98482.72
2022-08-27T15:27:17.202Z,98485.41
2022-08-27T15:30:24.783Z,98486.41
2022-08-27T15:33:29.382Z,98481.84
2022-08-27T15:36:31.144Z,98481.72
2022-08-27T15:39:34.867Z,98479.16
2022-08-27T15:42:36.456Z,98479.69
2022-08-27T15:45:38.348Z,98482.59
2022-08-27T15:48:41.562Z,98486.09
2022-08-27T15:51:44.782Z,98480.91
2022-08-27T15:54:48.553Z,98484.59
2022-08-27T15:57:50.242Z,98479.72
2022-08-27T16:01:01.609Z,98482.16
2022-08-27T16:04:06.265Z,98484.59
2022-08-27T16:07:07.935Z,98482.63
2022-08-27T16:10:12.150Z,98486.19
2022-08-27T16:13:15.787Z,98485.97
2022-08-27T16:16:22.589Z,98480.41
2022-08-27T16:19:25.615Z,98479.44
2022-08-27T16:22:27.186Z,98485.56
2022-08-27T16:25:29.076Z,98481.16
2022-08-27T16:28:30.823Z,98479.44
2022-08-27T16:31:32.965Z,98474.03
2022-08-27T16:34:36.167Z,98479.19
2022-08-27T16:37:38.009Z,98479.03
2022-08-27T16:40:44.163Z,98473.50
2022-08-27T16:43:46.654Z,98469.59
2022-08-27T16:46:48.765Z,98482.84
2022-08-27T16:50:24.314Z,98477.56
2022-08-27T16:53:28.115Z,98475.34
2022-08-27T16:56:31.808Z,98477.34
2022-08-27T16:59:35.505Z,98477.19
2022-08-27T17:02:38.155Z,98483.59
2022-08-27T17:05:41.184Z,98480.03
2022-08-27T17:08:48.022Z,98482.88
2022-08-27T17:11:53.578Z,98485.44
2022-08-27T17:15:00.380Z,98485.56
2022-08-27T17:18:02.893Z,98485.81
2022-08-27T17:21:06.095Z,98486.69
2022-08-27T17:24:10.937Z,98493.22
2022-08-27T17:27:14.704Z,98504.00
2022-08-27T17:30:16.374Z,98497.75
2022-08-27T17:33:20.363Z,98493.44
2022-08-27T17:36:23.428Z,98493.56
2022-08-27T17:39:30.856Z,98491.84
2022-08-27T17:42:32.926Z,98498.38
2022-08-27T17:45:34.669Z,98496.66
2022-08-27T17:48:36.186Z,98493.31
2022-08-27T17:51:39.330Z,98497.13
2022-08-27T17:54:42.829Z,98498.13
2022-08-27T17:57:45.265Z,98508.94
2022-08-27T18:00:47.417Z,98501.81
2022-08-27T18:03:48.978Z,98510.03
2022-08-27T18:06:52.310Z,98519.13
2022-08-27T18:09:55.431Z,98511.03
2022-08-27T18:12:57.310Z,98527.22
2022-08-27T18:15:58.887Z,98519.47
2022-08-27T18:19:00.733Z,98520.59
2022-08-27T18:22:06.889Z,98523.53
2022-08-27T18:25:09.577Z,98522.94
2022-08-27T18:28:12.251Z,98528.56
2022-08-27T18:31:16.856Z,98539.38
2022-08-27T18:34:20.947Z,98533.97
2022-08-27T18:37:24.193Z,98535.06
2022-08-27T18:40:27.033Z,98537.78
2022-08-27T18:43:33.294Z,98542.31
2022-08-27T18:46:35.915Z,98532.50
2022-08-27T18:49:37.640Z,98536.19
2022-08-27T18:52:40.831Z,98548.97
2022-08-27T18:55:42.801Z,98551.66
2022-08-27T18:58:44.702Z,98548.19
2022-08-27T19:01:46.697Z,98553.84
2022-08-27T19:04:48.958Z,98546.00
2022-08-27T19:07:52.881Z,98552.25
2022-08-27T19:10:54.494Z,98561.56
2022-08-27T19:13:56.027Z,98553.56
2022-08-27T19:16:58.940Z,98555.28
2022-08-27T19:20:01.029Z,98549.88
2022-08-27T19:23:04.439Z,98552.72
2022-08-27T19:26:12.366Z,98561.66
2022-08-27T19:29:14.217Z,98551.00
2022-08-27T19:32:16.619Z,98565.47
2022-08-27T19:35:18.374Z,98559.22
2022-08-27T19:38:32.144Z,98561.19
2022-08-27T19:41:34.576Z,98559.47
2022-08-27T19:44:36.532Z,98563.03
2022-08-27T19:47:41.741Z,98568.53
2022-08-27T19:50:43.606Z,98568.72
2022-08-27T19:53:47.134Z,98561.72
2022-08-27T19:56:48.831Z,98562.84
2022-08-27T19:59:50.700Z,98563.94
2022-08-27T20:02:52.542Z,98564.06
2022-08-27T20:05:54.332Z,98568.69
2022-08-27T20:08:57.361Z,98574.34
2022-08-27T20:11:58.931Z,98577.28
2022-08-27T20:15:00.496Z,98581.81
2022-08-27T20:18:04.041Z,98580.97
2022-08-27T20:21:06.502Z,98574.81
2022-08-27T20:24:09.771Z,98575.78
2022-08-27T20:27:11.271Z,98576.03
2022-08-27T20:30:13.212Z,98579.94
2022-08-27T20:33:14.962Z,98581.91
2022-08-27T20:36:16.778Z,98582.09
2022-08-27T20:39:19.771Z,98578.69
2022-08-27T20:42:22.723Z,98581.38
2022-08-27T20:45:24.769Z,98589.72
2022-08-27T20:48:29.962Z,98589.41
2022-08-27T20:51:31.472Z,98588.06
2022-08-27T20:54:54.407Z,98586.66
2022-08-27T20:58:14.756Z,98581.84
2022-08-27T21:01:17.065Z,98596.66
2022-08-27T21:04:18.618Z,98591.81
2022-08-27T21:07:20.955Z,98597.31
2022-08-27T21:10:23.942Z,98597.69
2022-08-27T21:13:26.083Z,98600.69
2022-08-27T21:16:28.004Z,98596.28
2022-08-27T21:19:31.623Z,98594.44
2022-08-27T21:22:33.188Z,98601.53
2022-08-27T21:25:36.207Z,98587.44
2022-08-27T21:28:38.442Z,98597.69
2022-08-27T21:31:40.578Z,98602.34
2022-08-27T21:34:42.395Z,98595.75
2022-08-27T21:37:44.106Z,98600.28
2022-08-27T21:40:47.064Z,98605.22
2022-08-27T21:43:48.565Z,98613.31
2022-08-27T21:46:50.501Z,98614.50
2022-08-27T21:49:52.070Z,98613.47
2022-08-27T21:52:53.730Z,98614.22
2022-08-27T21:55:56.743Z,98621.88
2022-08-27T21:58:58.432Z,98611.75
2022-08-27T22:02:01.187Z,98614.09
2022-08-27T22:05:02.943Z,98612.84
2022-08-27T22:08:04.658Z,98620.16
2022-08-27T22:11:08.381Z,98619.38
2022-08-27T22:14:10.064Z,98627.16
2022-08-27T22:17:15.928Z,98624.47
2022-08-27T22:20:17.638Z,98627.34
2022-08-27T22:23:19.369Z,98632.94
2022-08-27T22:26:22.607Z,98638.56
2022-08-27T22:29:24.654Z,98635.13
2022-08-27T22:32:26.247Z,98636.09
2022-08-27T22:35:28.985Z,98634.34
2022-08-27T22:38:30.742Z,98635.41
2022-08-27T22:41:33.709Z,98629.06
2022-08-27T22:44:40.488Z,98632.09
2022-08-27T22:47:42.156Z,98635.75
2022-08-27T22:50:43.904Z,98638.53
2022-08-27T22:53:46.322Z,98631.97
2022-08-27T22:56:49.513Z,98638.22
2022-08-27T22:59:51.585Z,98642.94
2022-08-27T23:02:53.280Z,98642.81
2022-08-27T23:05:54.968Z,98645.63
2022-08-27T23:08:56.783Z,98642.16
2022-08-27T23:12:00.668Z,98637.91
2022-08-27T23:15:03.330Z,98629.97
2022-08-27T23:18:07.174Z,98629.38
2022-08-27T23:21:09.426Z,98634.44
2022-08-27T23:24:11.091Z,98636.34
2022-08-27T23:27:28.874Z,98618.59
2022-08-27T23:30:30.788Z,98624.09
2022-08-27T23:33:32.362Z,98627.09
2022-08-27T23:36:34.732Z,98631.78
2022-08-27T23:39:36.411Z,98633.09
2022-08-27T23:42:40.807Z,98618.09
2022-08-27T23:45:43.279Z,98622.28
2022-08-27T23:48:44.768Z,98616.44
2022-08-27T23:51:46.648Z,98605.88
2022-08-27T23:54:48.180Z,98614.06
2022-08-27T23:57:51.776Z,98620.28
